createdAt,value
2017-12-04T00:00:24.222Z,0
2017-12-04T00:01:24.497Z,0
2017-12-04T00:02:24.505Z,0
2017-12-04T00:03:24.501Z,0
2017-12-04T00:04:24.268Z,0
2017-12-04T00:05:39.214Z,0
2017-12-04T00:06:39.298Z,0
2017-12-04T00:07:24.323Z,0
2017-12-04T00:08:24.573Z,0
2017-12-04T00:09:24.388Z,0
2017-12-04T00:10:24.622Z,0
2017-12-04T00:11:24.609Z,0
2017-12-04T00:12:24.634Z,0
2017-12-04T00:13:24.655Z,0
2017-12-04T00:14:24.673Z,0
2017-12-04T00:15:24.689Z,0
2017-12-04T00:16:39.387Z,0
2017-12-04T00:17:24.730Z,0
2017-12-04T00:18:24.730Z,0
2017-12-04T00:19:24.759Z,0
2017-12-04T00:20:24.837Z,0
2017-12-04T00:21:39.442Z,0
2017-12-04T00:22:24.288Z,0
2017-12-04T00:24:39.470Z,0
2017-12-04T00:25:39.504Z,0
2017-12-04T00:26:24.851Z,0
2017-12-04T00:27:24.856Z,0
2017-12-04T00:28:24.612Z,0
2017-12-04T00:29:39.639Z,0
2017-12-04T00:30:24.920Z,0
2017-12-04T00:31:24.928Z,0
2017-12-04T00:32:24.699Z,0
2017-12-04T00:33:24.980Z,0
2017-12-04T00:34:24.729Z,0
2017-12-04T00:35:24.970Z,0
2017-12-04T00:36:25.028Z,0
2017-12-04T00:37:39.683Z,0
2017-12-04T00:38:24.781Z,0
2017-12-04T00:39:25.032Z,0
2017-12-04T00:40:25.089Z,0
2017-12-04T00:41:25.073Z,0
2017-12-04T00:42:24.835Z,0
2017-12-04T00:43:24.884Z,0
2017-12-04T00:44:24.869Z,0
2017-12-04T00:45:25.146Z,0
2017-12-04T00:46:25.155Z,0
2017-12-04T00:47:25.146Z,0
2017-12-04T00:48:25.196Z,0
2017-12-04T00:49:39.878Z,0
2017-12-04T00:50:25.232Z,0
2017-12-04T00:51:39.904Z,0
2017-12-04T00:52:39.905Z,0
2017-12-04T00:53:25.242Z,0
2017-12-04T00:54:25.277Z,0
2017-12-04T00:55:39.939Z,0
2017-12-04T00:56:25.313Z,0
2017-12-04T00:57:25.084Z,0
2017-12-04T00:58:25.340Z,0
2017-12-04T00:59:25.365Z,0
2017-12-04T01:00:25.352Z,0
2017-12-04T01:01:40.068Z,0
2017-12-04T01:02:25.411Z,0
2017-12-04T01:03:25.146Z,0
2017-12-04T01:04:25.431Z,0
2017-12-04T01:05:25.431Z,0
2017-12-04T01:06:25.428Z,0
2017-12-04T01:07:25.462Z,0
2017-12-04T01:08:25.457Z,0
2017-12-04T01:09:25.484Z,0
2017-12-04T01:10:25.517Z,0
2017-12-04T01:11:40.202Z,0
2017-12-04T01:12:25.580Z,0
2017-12-04T01:14:39.998Z,0
2017-12-04T01:15:40.261Z,0
2017-12-04T01:16:25.640Z,0
2017-12-04T01:17:25.373Z,0
2017-12-04T01:18:25.631Z,0
2017-12-04T01:19:25.669Z,0
2017-12-04T01:20:25.682Z,0
2017-12-04T01:21:40.367Z,0
2017-12-04T01:22:25.696Z,0
2017-12-04T01:23:25.693Z,0
2017-12-04T01:24:40.412Z,0
2017-12-04T01:25:25.745Z,0
2017-12-04T01:26:25.734Z,0
2017-12-04T01:27:25.528Z,0
2017-12-04T01:28:25.825Z,0
2017-12-04T01:29:40.493Z,0
2017-12-04T01:31:25.858Z,0
2017-12-04T01:32:25.864Z,0
2017-12-04T01:33:25.835Z,0
2017-12-04T01:35:25.900Z,0
2017-12-04T01:36:40.609Z,0
2017-12-04T01:37:40.613Z,0
2017-12-04T01:38:25.962Z,0
2017-12-04T01:39:40.651Z,0
2017-12-04T01:40:40.677Z,0
2017-12-04T01:41:26.015Z,0
2017-12-04T01:42:25.982Z,0
2017-12-04T01:43:26.050Z,0
2017-12-04T01:44:26.042Z,0
2017-12-04T01:46:26.064Z,0
2017-12-04T01:47:26.079Z,0
2017-12-04T01:48:26.096Z,0
2017-12-04T01:49:26.104Z,0
2017-12-04T01:50:26.174Z,0
2017-12-04T01:51:40.836Z,0
2017-12-04T01:52:26.176Z,0
2017-12-04T01:53:26.148Z,0
2017-12-04T01:54:26.254Z,0
2017-12-04T01:55:26.216Z,0
2017-12-04T01:57:40.975Z,0
2017-12-04T01:58:40.945Z,0
2017-12-04T01:59:26.254Z,0
2017-12-04T02:00:26.264Z,0
2017-12-04T02:01:26.297Z,0
2017-12-04T02:02:26.297Z,0
2017-12-04T02:04:41.044Z,0
2017-12-04T02:05:26.374Z,0
2017-12-04T02:06:41.055Z,0
2017-12-04T02:07:26.397Z,0
2017-12-04T02:09:26.415Z,0
2017-12-04T02:11:26.440Z,0
2017-12-04T02:12:41.121Z,0
2017-12-04T02:13:41.159Z,0
2017-12-04T02:14:26.506Z,0
2017-12-04T02:15:26.531Z,0
2017-12-04T02:16:41.185Z,0
2017-12-04T02:17:26.569Z,0
2017-12-04T02:18:26.299Z,0
2017-12-04T02:19:41.230Z,0
2017-12-04T02:20:26.619Z,0
2017-12-04T02:21:26.673Z,0
2017-12-04T02:22:26.369Z,0
2017-12-04T02:23:41.311Z,0
2017-12-04T02:24:26.635Z,0
2017-12-04T02:25:26.678Z,0
2017-12-04T02:26:26.419Z,0
2017-12-04T02:27:41.363Z,0
2017-12-04T02:28:26.725Z,0
2017-12-04T02:29:26.716Z,0
2017-12-04T02:30:26.779Z,0
2017-12-04T02:31:26.758Z,0
2017-12-04T02:32:26.768Z,0
2017-12-04T02:33:26.823Z,0
2017-12-04T02:34:26.893Z,0
2017-12-04T02:35:26.839Z,0
2017-12-04T02:36:26.845Z,0
2017-12-04T02:37:26.815Z,0
2017-12-04T02:38:26.885Z,0
2017-12-04T02:39:26.923Z,0
2017-12-04T02:40:26.935Z,0
2017-12-04T02:41:26.936Z,0
2017-12-04T02:42:41.649Z,0
2017-12-04T02:43:26.936Z,0
2017-12-04T02:44:26.932Z,0
2017-12-04T02:46:26.970Z,0
2017-12-04T02:47:27.029Z,0
2017-12-04T02:48:27.010Z,0
2017-12-04T02:49:26.510Z,0
2017-12-04T02:50:27.072Z,0
2017-12-04T02:51:41.722Z,0
2017-12-04T02:52:27.099Z,0
2017-12-04T02:53:27.116Z,0
2017-12-04T02:54:27.116Z,0
2017-12-04T02:55:27.141Z,0
2017-12-04T02:56:27.163Z,0
2017-12-04T02:57:27.151Z,0
2017-12-04T02:59:41.868Z,0
2017-12-04T03:00:27.197Z,0
2017-12-04T03:01:27.211Z,0
2017-12-04T03:02:27.241Z,0
2017-12-04T03:03:27.241Z,0
2017-12-04T03:04:27.274Z,0
2017-12-04T03:05:27.295Z,0
2017-12-04T03:06:27.293Z,0
2017-12-04T03:07:27.303Z,0
2017-12-04T03:08:27.360Z,0
2017-12-04T03:09:27.429Z,0
2017-12-04T03:10:27.379Z,0
2017-12-04T03:11:27.366Z,0
2017-12-04T03:12:27.416Z,0
2017-12-04T03:13:27.411Z,0
2017-12-04T03:15:42.108Z,0
2017-12-04T03:16:27.434Z,0
2017-12-04T03:17:27.225Z,0
2017-12-04T03:18:27.474Z,0
2017-12-04T03:19:27.511Z,0
2017-12-04T03:20:27.543Z,0
2017-12-04T03:21:27.264Z,0
2017-12-04T03:22:27.563Z,0
2017-12-04T03:23:27.545Z,0
2017-12-04T03:24:27.578Z,0
2017-12-04T03:25:27.606Z,0
2017-12-04T03:27:27.368Z,0
2017-12-04T03:28:27.396Z,0
2017-12-04T03:29:27.650Z,0
2017-12-04T03:30:42.338Z,0
2017-12-04T03:31:42.361Z,0
2017-12-04T03:32:27.708Z,0
2017-12-04T03:33:27.728Z,0
2017-12-04T03:34:27.752Z,0
2017-12-04T03:36:27.802Z,0
2017-12-04T03:37:27.787Z,0
2017-12-04T03:39:27.798Z,0
2017-12-04T03:40:42.481Z,0
2017-12-04T03:41:27.817Z,0
2017-12-04T03:42:27.861Z,0
2017-12-04T03:43:27.875Z,0
2017-12-04T03:44:42.571Z,0
2017-12-04T03:45:27.892Z,0
2017-12-04T03:46:27.676Z,0
2017-12-04T03:47:42.580Z,0
2017-12-04T03:48:27.917Z,0
2017-12-04T03:49:27.962Z,0
2017-12-04T03:50:27.984Z,0
2017-12-04T03:51:27.956Z,0
2017-12-04T03:53:42.802Z,0
2017-12-04T03:54:28.013Z,0
2017-12-04T03:55:28.065Z,0
2017-12-04T03:56:28.045Z,0
2017-12-04T03:57:42.779Z,0
2017-12-04T03:58:28.138Z,0
2017-12-04T03:59:28.160Z,0
2017-12-04T04:00:28.161Z,0
2017-12-04T04:01:28.153Z,0
2017-12-04T04:02:42.809Z,0
2017-12-04T04:03:28.168Z,0
2017-12-04T04:04:42.884Z,0
2017-12-04T04:05:28.222Z,0
2017-12-04T04:06:42.881Z,0
2017-12-04T04:07:27.995Z,0
2017-12-04T04:08:28.263Z,0
2017-12-04T04:09:28.269Z,0
2017-12-04T04:10:28.291Z,0
2017-12-04T04:11:28.275Z,0
2017-12-04T04:12:28.320Z,0
2017-12-04T04:13:43.019Z,0
2017-12-04T04:14:28.406Z,0
2017-12-04T04:15:28.363Z,0
2017-12-04T04:16:28.155Z,0
2017-12-04T04:17:43.051Z,0
2017-12-04T04:18:28.405Z,0
2017-12-04T04:19:28.455Z,0
2017-12-04T04:20:28.456Z,0
2017-12-04T04:22:28.497Z,0
2017-12-04T04:23:28.012Z,0
2017-12-04T04:24:28.521Z,0
2017-12-04T04:25:28.636Z,0
2017-12-04T04:26:43.235Z,0
2017-12-04T04:27:28.669Z,0
2017-12-04T04:28:28.561Z,0
2017-12-04T04:29:43.283Z,0
2017-12-04T04:30:28.591Z,0
2017-12-04T04:31:28.590Z,0
2017-12-04T04:32:28.394Z,0
2017-12-04T04:33:28.622Z,0
2017-12-04T04:34:43.312Z,0
2017-12-04T04:35:28.177Z,0
2017-12-04T04:36:28.712Z,0
2017-12-04T04:38:28.718Z,0
2017-12-04T04:39:28.719Z,0
2017-12-04T04:40:28.747Z,0
2017-12-04T04:42:43.207Z,0
2017-12-04T04:43:43.467Z,0
2017-12-04T04:44:28.815Z,0
2017-12-04T04:45:43.519Z,0
2017-12-04T04:46:28.888Z,0
2017-12-04T04:47:28.886Z,0
2017-12-04T04:48:28.891Z,0
2017-12-04T04:49:28.917Z,0
2017-12-04T04:50:43.609Z,0
2017-12-04T04:51:28.958Z,0
2017-12-04T04:52:28.958Z,0
2017-12-04T04:53:28.924Z,0
2017-12-04T04:54:29.004Z,0
2017-12-04T04:57:28.997Z,0
2017-12-04T04:58:28.810Z,0
2017-12-04T04:59:29.089Z,0
2017-12-04T05:00:29.062Z,0
2017-12-04T05:01:29.098Z,0
2017-12-04T05:02:29.083Z,0
2017-12-04T05:03:29.103Z,0
2017-12-04T05:04:29.149Z,0
2017-12-04T05:05:28.930Z,0
2017-12-04T05:06:43.811Z,0
2017-12-04T05:07:29.158Z,0
2017-12-04T05:08:29.204Z,0
2017-12-04T05:09:29.228Z,0
2017-12-04T05:10:29.257Z,0
2017-12-04T05:11:29.236Z,0
2017-12-04T05:12:29.261Z,0
2017-12-04T05:14:29.284Z,0
2017-12-04T05:15:29.293Z,0
2017-12-04T05:16:29.387Z,0
2017-12-04T05:17:29.351Z,0
2017-12-04T05:18:29.352Z,0
2017-12-04T05:19:29.388Z,0
2017-12-04T05:20:29.379Z,0
2017-12-04T05:21:29.395Z,0
2017-12-04T05:22:44.070Z,0
2017-12-04T05:23:29.183Z,0
2017-12-04T05:24:29.504Z,0
2017-12-04T05:25:29.490Z,0
2017-12-04T05:26:29.230Z,0
2017-12-04T05:28:29.555Z,0
2017-12-04T05:29:29.544Z,0
2017-12-04T05:30:44.208Z,0
2017-12-04T05:31:29.565Z,0
2017-12-04T05:32:44.264Z,0
2017-12-04T05:33:29.596Z,0
2017-12-04T05:34:29.623Z,0
2017-12-04T05:35:29.631Z,0
2017-12-04T05:36:29.655Z,0
2017-12-04T05:37:44.063Z,0
2017-12-04T05:38:44.342Z,0
2017-12-04T05:39:29.430Z,0
2017-12-04T05:40:29.705Z,0
2017-12-04T05:41:44.423Z,0
2017-12-04T05:42:29.811Z,0
2017-12-04T05:43:44.438Z,0
2017-12-04T05:44:44.160Z,0
2017-12-04T05:45:29.797Z,0
2017-12-04T05:46:29.813Z,0
2017-12-04T05:47:29.848Z,0
2017-12-04T05:48:44.529Z,0
2017-12-04T05:49:29.618Z,0
2017-12-04T05:50:44.276Z,0
2017-12-04T05:51:29.628Z,0
2017-12-04T05:52:29.938Z,0
2017-12-04T05:53:29.905Z,0
2017-12-04T05:54:29.904Z,0
2017-12-04T05:56:44.622Z,0
2017-12-04T05:57:29.960Z,0
2017-12-04T05:58:29.970Z,0
2017-12-04T05:59:29.982Z,0
2017-12-04T06:00:44.720Z,0
2017-12-04T06:01:30.035Z,0
2017-12-04T06:02:30.086Z,0
2017-12-04T06:03:29.798Z,0
2017-12-04T06:04:29.828Z,0
2017-12-04T06:05:30.117Z,0
2017-12-04T06:06:29.864Z,0
2017-12-04T06:07:30.242Z,0
2017-12-04T06:09:44.827Z,0
2017-12-04T06:11:30.266Z,0
2017-12-04T06:12:30.202Z,0
2017-12-04T06:13:30.248Z,0
2017-12-04T06:14:29.967Z,0
2017-12-04T06:15:30.255Z,0
2017-12-04T06:16:30.265Z,0
2017-12-04T06:17:30.024Z,0
2017-12-04T06:18:30.319Z,0
2017-12-04T06:19:30.341Z,0
2017-12-04T06:20:45.024Z,0
2017-12-04T06:21:30.071Z,0
2017-12-04T06:22:30.367Z,0
2017-12-04T06:23:30.368Z,0
2017-12-04T06:24:30.392Z,0
2017-12-04T06:25:45.066Z,0
2017-12-04T06:26:30.444Z,0
2017-12-04T06:27:30.427Z,4
2017-12-04T06:28:44.858Z,4
2017-12-04T06:29:30.469Z,4
2017-12-04T06:30:30.266Z,0
2017-12-04T06:31:30.512Z,4
2017-12-04T06:32:30.564Z,4
2017-12-04T06:33:30.561Z,4
2017-12-04T06:34:30.278Z,4
2017-12-04T06:35:30.590Z,8
2017-12-04T06:36:45.258Z,16
2017-12-04T06:37:30.602Z,20
2017-12-04T06:38:30.623Z,20
2017-12-04T06:39:30.628Z,24
2017-12-04T06:40:30.694Z,24
2017-12-04T06:41:45.335Z,28
2017-12-04T06:42:30.705Z,32
2017-12-04T06:43:30.701Z,28
2017-12-04T06:44:30.475Z,28
2017-12-04T06:45:30.748Z,48
2017-12-04T06:46:30.721Z,56
2017-12-04T06:47:30.758Z,52
2017-12-04T06:48:30.823Z,40
2017-12-04T06:49:45.486Z,28
2017-12-04T06:50:30.848Z,28
2017-12-04T06:51:30.842Z,32
2017-12-04T06:52:45.524Z,56
2017-12-04T06:53:30.906Z,68
2017-12-04T06:54:30.944Z,80
2017-12-04T06:55:45.317Z,80
2017-12-04T06:56:30.985Z,84
2017-12-04T06:57:45.612Z,84
2017-12-04T06:58:30.961Z,80
2017-12-04T06:59:30.946Z,84
2017-12-04T07:00:30.704Z,80
2017-12-04T07:01:45.400Z,92
2017-12-04T07:02:45.444Z,100
2017-12-04T07:04:31.053Z,136
2017-12-04T07:06:31.096Z,120
2017-12-04T07:07:31.113Z,124
2017-12-04T07:08:31.085Z,120
2017-12-04T07:09:31.095Z,156
2017-12-04T07:10:31.148Z,156
2017-12-04T07:11:31.144Z,208
2017-12-04T07:12:45.837Z,220
2017-12-04T07:13:31.170Z,224
2017-12-04T07:14:31.191Z,248
2017-12-04T07:15:31.176Z,260
2017-12-04T07:16:31.214Z,256
2017-12-04T07:17:31.241Z,292
2017-12-04T07:18:31.278Z,328
2017-12-04T07:19:31.047Z,340
2017-12-04T07:20:31.299Z,352
2017-12-04T07:21:31.293Z,356
2017-12-04T07:22:31.424Z,388
2017-12-04T07:23:31.087Z,448
2017-12-04T07:24:31.409Z,516
2017-12-04T07:25:31.389Z,600
2017-12-04T07:26:31.456Z,648
2017-12-04T07:27:31.377Z,652
2017-12-04T07:28:31.400Z,556
2017-12-04T07:29:46.114Z,532
2017-12-04T07:30:46.092Z,568
2017-12-04T07:31:31.493Z,652
2017-12-04T07:32:31.496Z,636
2017-12-04T07:33:31.222Z,648
2017-12-04T07:34:31.525Z,684
2017-12-04T07:35:31.531Z,768
2017-12-04T07:36:31.539Z,884
2017-12-04T07:37:46.325Z,984
2017-12-04T07:38:31.562Z,992
2017-12-04T07:39:31.373Z,1032
2017-12-04T07:40:46.272Z,972
2017-12-04T07:41:31.378Z,1084
2017-12-04T07:42:31.376Z,1168
2017-12-04T07:43:31.676Z,1252
2017-12-04T07:44:46.339Z,1324
2017-12-04T07:45:31.675Z,1452
2017-12-04T07:46:46.366Z,1580
2017-12-04T07:47:31.717Z,1528
2017-12-04T07:48:46.375Z,1336
2017-12-04T07:49:31.773Z,1200
2017-12-04T07:50:31.742Z,1064
2017-12-04T07:51:31.540Z,1096
2017-12-04T07:52:31.824Z,988
2017-12-04T07:53:31.544Z,912
2017-12-04T07:54:46.495Z,984
2017-12-04T07:55:31.845Z,1220
2017-12-04T07:56:31.846Z,1688
2017-12-04T07:57:31.869Z,1912
2017-12-04T07:58:31.895Z,2496
2017-12-04T08:00:46.345Z,2140
2017-12-04T08:01:31.707Z,2436
2017-12-04T08:02:31.685Z,2348
2017-12-04T08:03:31.949Z,2448
2017-12-04T08:04:31.461Z,1868
2017-12-04T08:05:32.013Z,1888
2017-12-04T08:06:32.026Z,2068
2017-12-04T08:07:31.782Z,2256
2017-12-04T08:08:32.067Z,2524
2017-12-04T08:09:32.062Z,2700
2017-12-04T08:10:31.839Z,2868
2017-12-04T08:11:32.082Z,3416
2017-12-04T08:12:32.089Z,2912
2017-12-04T08:13:31.890Z,3300
2017-12-04T08:14:32.182Z,3636
2017-12-04T08:15:32.137Z,3488
2017-12-04T08:16:46.851Z,3436
2017-12-04T08:17:46.861Z,3464
2017-12-04T08:18:46.892Z,3544
2017-12-04T08:19:31.947Z,3872
2017-12-04T08:20:32.254Z,4292
2017-12-04T08:21:32.274Z,4272
2017-12-04T08:22:32.300Z,4048
2017-12-04T08:23:32.295Z,4060
2017-12-04T08:24:46.956Z,4224
2017-12-04T08:25:32.349Z,4352
2017-12-04T08:26:32.368Z,4520
2017-12-04T08:27:32.342Z,4568
2017-12-04T08:28:47.046Z,4244
2017-12-04T08:29:47.084Z,3968
2017-12-04T08:30:32.420Z,3840
2017-12-04T08:31:47.086Z,3672
2017-12-04T08:32:47.116Z,3596
2017-12-04T08:33:32.440Z,3524
2017-12-04T08:34:32.452Z,3412
2017-12-04T08:35:32.508Z,3364
2017-12-04T08:36:32.485Z,3236
2017-12-04T08:37:47.191Z,3140
2017-12-04T08:38:32.638Z,3224
2017-12-04T08:39:32.514Z,3648
2017-12-04T08:40:32.579Z,4456
2017-12-04T08:41:32.576Z,5356
2017-12-04T08:42:32.578Z,6376
2017-12-04T08:43:32.620Z,6644
2017-12-04T08:44:32.663Z,6664
2017-12-04T08:45:32.672Z,5952
2017-12-04T08:46:32.687Z,3924
2017-12-04T08:47:47.343Z,3460
2017-12-04T08:48:32.713Z,3652
2017-12-04T08:49:32.732Z,4000
2017-12-04T08:50:32.741Z,4064
2017-12-04T08:51:32.774Z,4828
2017-12-04T08:52:32.793Z,5080
2017-12-04T08:53:32.764Z,4704
2017-12-04T08:54:32.788Z,4220
2017-12-04T08:55:32.548Z,4140
2017-12-04T08:56:32.821Z,3992
2017-12-04T08:58:32.841Z,4336
2017-12-04T08:59:32.867Z,4636
2017-12-04T09:00:32.859Z,4800
2017-12-04T09:01:32.688Z,4200
2017-12-04T09:02:32.919Z,4240
2017-12-04T09:03:32.931Z,3512
2017-12-04T09:04:47.649Z,3144
2017-12-04T09:05:32.986Z,2756
2017-12-04T09:06:33.081Z,2504
2017-12-04T09:07:32.765Z,3892
2017-12-04T09:08:33.067Z,2524
2017-12-04T09:10:32.810Z,1944
2017-12-04T09:11:33.098Z,1764
2017-12-04T09:12:33.109Z,1788
2017-12-04T09:13:32.882Z,1840
2017-12-04T09:14:33.144Z,1996
2017-12-04T09:15:33.149Z,1876
2017-12-04T09:16:33.144Z,1700
2017-12-04T09:17:32.966Z,1596
2017-12-04T09:19:47.887Z,1724
2017-12-04T09:20:33.238Z,1760
2017-12-04T09:21:33.239Z,1824
2017-12-04T09:22:33.021Z,1736
2017-12-04T09:24:33.310Z,1304
2017-12-04T09:25:33.305Z,1396
2017-12-04T09:26:33.342Z,1336
2017-12-04T09:27:48.008Z,1664
2017-12-04T09:28:33.384Z,1932
2017-12-04T09:29:33.390Z,1848
2017-12-04T09:30:48.057Z,1808
2017-12-04T09:31:47.806Z,1800
2017-12-04T09:32:33.632Z,1464
2017-12-04T09:33:48.111Z,1280
2017-12-04T09:34:33.467Z,1436
2017-12-04T09:35:48.162Z,2048
2017-12-04T09:36:33.231Z,2380
2017-12-04T09:37:33.241Z,2204
2017-12-04T09:38:33.255Z,2288
2017-12-04T09:39:48.265Z,2388
2017-12-04T09:40:33.563Z,2480
2017-12-04T09:41:33.318Z,2748
2017-12-04T09:42:33.585Z,3000
2017-12-04T09:43:33.359Z,3772
2017-12-04T09:44:33.616Z,5420
2017-12-04T09:45:48.308Z,5780
2017-12-04T09:46:33.403Z,5896
2017-12-04T09:47:33.652Z,5224
2017-12-04T09:48:33.429Z,4056
2017-12-04T09:49:33.706Z,3444
2017-12-04T09:50:33.710Z,3228
2017-12-04T09:51:48.419Z,3052
2017-12-04T09:52:33.503Z,3060
2017-12-04T09:53:33.745Z,3156
2017-12-04T09:54:33.779Z,3196
2017-12-04T09:55:33.278Z,3328
2017-12-04T09:56:33.825Z,3464
2017-12-04T09:57:33.843Z,3452
2017-12-04T09:58:33.856Z,3608
2017-12-04T09:59:48.548Z,3676
2017-12-04T10:01:33.884Z,3520
2017-12-04T10:02:33.935Z,3424
2017-12-04T10:03:33.922Z,3536
2017-12-04T10:05:33.953Z,3260
2017-12-04T10:06:33.971Z,3160
2017-12-04T10:07:48.690Z,3024
2017-12-04T10:08:33.730Z,2912
2017-12-04T10:09:34.062Z,2772
2017-12-04T10:10:34.030Z,2668
2017-12-04T10:11:34.086Z,2640
2017-12-04T10:12:48.767Z,2672
2017-12-04T10:13:34.121Z,2708
2017-12-04T10:14:34.094Z,2756
2017-12-04T10:15:34.163Z,2832
2017-12-04T10:16:34.186Z,2968
2017-12-04T10:17:34.145Z,3280
2017-12-04T10:18:34.160Z,3324
2017-12-04T10:19:34.209Z,3200
2017-12-04T10:20:34.223Z,3124
2017-12-04T10:21:34.229Z,3156
2017-12-04T10:23:03.560Z,3452
2017-12-04T10:23:34.269Z,3352
2017-12-04T10:25:34.279Z,3548
2017-12-04T10:26:34.051Z,3568
2017-12-04T10:27:34.351Z,3576
2017-12-04T10:28:34.083Z,3584
2017-12-04T10:29:34.352Z,3596
2017-12-04T10:30:34.411Z,3596
2017-12-04T10:31:34.423Z,3592
2017-12-04T10:32:34.394Z,3600
2017-12-04T10:33:49.065Z,3588
2017-12-04T10:34:34.453Z,3592
2017-12-04T10:35:33.951Z,3584
2017-12-04T10:36:34.477Z,3584
2017-12-04T10:37:34.485Z,3576
2017-12-04T10:38:34.483Z,3576
2017-12-04T10:39:48.670Z,3580
2017-12-04T10:40:34.519Z,3596
2017-12-04T10:41:34.565Z,3624
2017-12-04T10:42:34.566Z,3644
2017-12-04T10:43:34.352Z,3676
2017-12-04T10:44:34.608Z,3688
2017-12-04T10:45:34.599Z,3636
2017-12-04T10:46:34.613Z,3712
2017-12-04T10:47:34.402Z,3788
2017-12-04T10:48:34.398Z,3744
2017-12-04T10:49:34.664Z,3692
2017-12-04T10:50:34.736Z,3676
2017-12-04T10:51:34.772Z,3612
2017-12-04T10:52:34.716Z,3696
2017-12-04T10:53:34.480Z,3704
2017-12-04T10:55:04.137Z,3764
2017-12-04T10:55:34.759Z,3728
2017-12-04T10:56:34.785Z,3824
2017-12-04T10:58:34.810Z,3796
2017-12-04T10:59:34.831Z,3864
2017-12-04T11:00:34.851Z,3808
2017-12-04T11:01:34.878Z,3920
2017-12-04T11:02:34.880Z,3872
2017-12-04T11:03:34.651Z,3384
2017-12-04T11:04:34.977Z,3924
2017-12-04T11:05:34.764Z,3972
2017-12-04T11:06:34.937Z,4000
2017-12-04T11:07:34.975Z,3384
2017-12-04T11:08:49.391Z,3968
2017-12-04T11:09:34.961Z,3436
2017-12-04T11:10:49.707Z,3236
2017-12-04T11:11:34.759Z,4092
2017-12-04T11:12:34.782Z,4056
2017-12-04T11:13:35.071Z,3520
2017-12-04T11:14:35.116Z,3364
2017-12-04T11:15:49.741Z,3072
2017-12-04T11:16:49.768Z,3004
2017-12-04T11:17:35.198Z,3252
2017-12-04T11:18:34.907Z,3176
2017-12-04T11:19:49.558Z,2888
2017-12-04T11:20:34.895Z,2804
2017-12-04T11:21:34.684Z,2976
2017-12-04T11:22:49.632Z,3860
2017-12-04T11:23:34.986Z,3416
2017-12-04T11:24:34.997Z,3160
2017-12-04T11:25:35.238Z,3700
2017-12-04T11:26:49.920Z,2896
2017-12-04T11:27:35.300Z,3804
2017-12-04T11:28:35.295Z,3804
2017-12-04T11:29:35.094Z,3828
2017-12-04T11:30:35.086Z,3312
2017-12-04T11:31:35.092Z,3848
2017-12-04T11:34:35.409Z,3924
2017-12-04T11:35:34.639Z,4016
2017-12-04T11:36:35.448Z,4100
2017-12-04T11:37:35.196Z,3404
2017-12-04T11:38:34.955Z,4352
2017-12-04T11:39:35.478Z,4576
2017-12-04T11:40:49.883Z,4312
2017-12-04T11:41:35.237Z,3928
2017-12-04T11:42:50.198Z,4432
2017-12-04T11:43:35.520Z,3964
2017-12-04T11:44:35.546Z,4336
2017-12-04T11:45:35.349Z,4848
2017-12-04T11:46:50.488Z,5604
2017-12-04T11:48:35.636Z,5648
2017-12-04T11:49:35.639Z,5884
2017-12-04T11:50:35.655Z,4912
2017-12-04T11:51:35.687Z,3884
2017-12-04T11:52:35.743Z,4388
2017-12-04T11:53:35.704Z,4524
2017-12-04T11:54:35.487Z,4292
2017-12-04T11:55:50.415Z,4256
2017-12-04T11:56:35.775Z,5616
2017-12-04T11:57:50.431Z,6028
2017-12-04T11:58:35.791Z,5764
2017-12-04T11:59:35.801Z,5156
2017-12-04T12:00:35.831Z,4748
2017-12-04T12:01:35.851Z,5148
2017-12-04T12:02:35.830Z,5872
2017-12-04T12:03:35.643Z,6036
2017-12-04T12:04:35.646Z,5960
2017-12-04T12:05:35.920Z,5348
2017-12-04T12:06:35.958Z,4832
2017-12-04T12:07:35.960Z,4884
2017-12-04T12:08:35.976Z,5064
2017-12-04T12:09:35.991Z,5020
2017-12-04T12:10:36.003Z,5964
2017-12-04T12:11:36.024Z,5660
2017-12-04T12:12:36.065Z,5840
2017-12-04T12:13:36.080Z,4852
2017-12-04T12:14:35.788Z,5576
2017-12-04T12:15:36.104Z,5684
2017-12-04T12:16:35.838Z,5212
2017-12-04T12:18:36.165Z,4268
2017-12-04T12:19:50.816Z,3784
2017-12-04T12:20:50.840Z,3400
2017-12-04T12:21:50.862Z,3236
2017-12-04T12:22:36.249Z,2936
2017-12-04T12:23:36.209Z,2608
2017-12-04T12:24:36.207Z,3408
2017-12-04T12:25:36.290Z,3636
2017-12-04T12:26:36.243Z,3436
2017-12-04T12:27:36.020Z,3840
2017-12-04T12:28:36.290Z,4028
2017-12-04T12:29:50.974Z,2760
2017-12-04T12:30:51.013Z,2864
2017-12-04T12:31:36.364Z,2600
2017-12-04T12:32:36.232Z,3156
2017-12-04T12:33:36.397Z,3480
2017-12-04T12:34:36.162Z,3476
2017-12-04T12:35:36.442Z,2868
2017-12-04T12:36:36.451Z,3376
2017-12-04T12:37:36.449Z,2272
2017-12-04T12:38:36.455Z,2352
2017-12-04T12:39:51.157Z,3228
2017-12-04T12:40:36.265Z,4236
2017-12-04T12:41:36.526Z,4644
2017-12-04T12:42:36.282Z,5256
2017-12-04T12:43:36.531Z,4444
2017-12-04T12:44:36.327Z,4568
2017-12-04T12:45:51.006Z,5128
2017-12-04T12:46:36.629Z,4644
2017-12-04T12:47:36.635Z,5500
2017-12-04T12:48:36.662Z,5544
2017-12-04T12:49:36.666Z,4912
2017-12-04T12:50:36.694Z,3952
2017-12-04T12:51:36.718Z,4776
2017-12-04T12:52:36.729Z,4836
2017-12-04T12:53:36.484Z,5192
2017-12-04T12:54:36.775Z,4856
2017-12-04T12:55:36.754Z,4064
2017-12-04T12:56:36.507Z,3452
2017-12-04T12:57:36.542Z,2756
2017-12-04T12:58:36.786Z,2968
2017-12-04T12:59:36.849Z,2888
2017-12-04T13:00:36.836Z,3016
2017-12-04T13:01:51.294Z,3076
2017-12-04T13:02:36.381Z,3144
2017-12-04T13:03:51.549Z,3276
2017-12-04T13:04:36.939Z,3428
2017-12-04T13:05:51.632Z,3460
2017-12-04T13:06:36.950Z,3404
2017-12-04T13:07:37.010Z,3392
2017-12-04T13:08:37.022Z,3460
2017-12-04T13:09:37.023Z,3400
2017-12-04T13:10:51.710Z,3292
2017-12-04T13:11:36.792Z,3160
2017-12-04T13:12:37.072Z,3140
2017-12-04T13:13:37.080Z,2928
2017-12-04T13:14:37.095Z,2916
2017-12-04T13:15:37.090Z,2720
2017-12-04T13:16:37.163Z,2696
2017-12-04T13:18:06.473Z,2744
2017-12-04T13:18:37.168Z,2720
2017-12-04T13:19:37.194Z,2524
2017-12-04T13:20:37.231Z,2496
2017-12-04T13:21:51.885Z,2572
2017-12-04T13:22:37.246Z,2440
2017-12-04T13:23:37.227Z,2244
2017-12-04T13:24:36.991Z,2172
2017-12-04T13:25:37.317Z,2136
2017-12-04T13:26:37.026Z,2092
2017-12-04T13:27:37.316Z,2068
2017-12-04T13:28:37.073Z,2060
2017-12-04T13:30:37.364Z,2028
2017-12-04T13:31:37.445Z,2024
2017-12-04T13:33:06.732Z,2032
2017-12-04T13:33:37.405Z,2080
2017-12-04T13:34:37.418Z,2072
2017-12-04T13:35:37.419Z,1980
2017-12-04T13:36:37.222Z,1884
2017-12-04T13:37:52.140Z,1828
2017-12-04T13:38:52.147Z,1824
2017-12-04T13:39:36.993Z,1812
2017-12-04T13:40:37.525Z,1804
2017-12-04T13:41:37.655Z,1780
2017-12-04T13:42:37.598Z,1756
2017-12-04T13:43:37.597Z,1744
2017-12-04T13:44:37.332Z,1720
2017-12-04T13:45:37.709Z,1708
2017-12-04T13:47:37.688Z,1720
2017-12-04T13:48:37.666Z,2080
2017-12-04T13:49:37.410Z,1888
2017-12-04T13:50:37.471Z,1756
2017-12-04T13:51:37.481Z,1800
2017-12-04T13:52:37.472Z,1688
2017-12-04T13:53:52.418Z,1656
2017-12-04T13:54:37.763Z,1644
2017-12-04T13:55:37.816Z,1624
2017-12-04T13:56:37.788Z,1608
2017-12-04T13:57:37.820Z,1596
2017-12-04T13:58:37.582Z,1580
2017-12-04T13:59:37.854Z,1564
2017-12-04T14:00:37.893Z,1552
2017-12-04T14:01:37.625Z,1532
2017-12-04T14:02:37.894Z,1508
2017-12-04T14:03:37.906Z,1484
2017-12-04T14:04:52.593Z,1448
2017-12-04T14:05:37.934Z,1428
2017-12-04T14:06:37.930Z,1400
2017-12-04T14:07:37.745Z,1376
2017-12-04T14:08:37.979Z,1352
2017-12-04T14:09:38.030Z,1328
2017-12-04T14:10:38.024Z,1300
2017-12-04T14:12:52.485Z,1248
2017-12-04T14:13:38.103Z,1232
2017-12-04T14:14:37.822Z,1212
2017-12-04T14:15:37.570Z,1188
2017-12-04T14:16:38.125Z,1164
2017-12-04T14:17:38.111Z,1144
2017-12-04T14:18:38.274Z,1124
2017-12-04T14:19:38.178Z,1104
2017-12-04T14:20:52.860Z,1076
2017-12-04T14:21:38.238Z,1060
2017-12-04T14:22:52.626Z,1032
2017-12-04T14:23:37.989Z,1012
2017-12-04T14:24:38.274Z,984
2017-12-04T14:25:38.044Z,960
2017-12-04T14:26:38.303Z,936
2017-12-04T14:27:38.281Z,912
2017-12-04T14:28:52.727Z,884
2017-12-04T14:29:38.352Z,864
2017-12-04T14:30:38.360Z,840
2017-12-04T14:31:38.340Z,808
2017-12-04T14:32:38.493Z,780
2017-12-04T14:33:38.396Z,752
2017-12-04T14:34:38.444Z,724
2017-12-04T14:35:53.117Z,688
2017-12-04T14:36:53.134Z,656
2017-12-04T14:38:38.496Z,604
2017-12-04T14:39:38.510Z,572
2017-12-04T14:40:38.506Z,540
2017-12-04T14:41:38.538Z,508
2017-12-04T14:42:53.205Z,472
2017-12-04T14:43:38.563Z,452
2017-12-04T14:44:38.323Z,432